Time;durP1;ratioP1;P1;durP2;ratioP2;P2;SDS_P1;SDS_P2;PMS_P1;PMS_P2;Temp;Humidity;BMP_temperature;BMP_pressure;BME280_temperature;BME280_humidity;BME280_pressure;Samples;Min_cycle;Max_cycle;Signal;HPM_P1;HPM_P2
2021/06/02 00:01:36;;;;;;;10.00;4.83;;;;;;;9.50;89.71;101356.38;5035734;28;20181;-69
2021/06/02 00:04:02;;;;;;;14.00;5.37;;;;;;;9.45;89.66;101355.72;5034697;28;20263;-68
2021/06/02 00:06:29;;;;;;;14.90;4.97;;;;;;;9.51;90.02;101360.78;5017202;28;20168;-69
2021/06/02 00:08:55;;;;;;;9.40;4.60;;;;;;;9.52;89.87;101362.53;5016505;28;20207;-69
2021/06/02 00:11:21;;;;;;;15.67;4.50;;;;;;;9.56;88.85;101358.81;5034319;28;20218;-68
2021/06/02 00:13:47;;;;;;;6.00;3.87;;;;;;;9.59;88.00;101356.00;5017214;28;20176;-68
2021/06/02 00:16:12;;;;;;;8.33;3.87;;;;;;;9.63;87.36;101351.41;5034895;28;20537;-69
2021/06/02 00:18:37;;;;;;;10.30;3.80;;;;;;;9.50;87.67;101353.72;5016542;28;20176;-69
2021/06/02 00:21:03;;;;;;;10.13;4.90;;;;;;;9.51;88.99;101363.44;5034210;28;20204;-69
2021/06/02 00:23:28;;;;;;;9.20;4.83;;;;;;;9.57;89.13;101355.19;5016650;28;20191;-69
2021/06/02 00:25:54;;;;;;;6.47;4.00;;;;;;;9.46;88.20;101357.44;5017516;28;20257;-69
2021/06/02 00:28:19;;;;;;;11.10;5.03;;;;;;;9.54;89.10;101359.78;5033605;28;20172;-69
2021/06/02 00:30:45;;;;;;;10.10;4.93;;;;;;;9.39;89.91;101350.63;5033508;28;20191;-69
2021/06/02 00:33:10;;;;;;;9.77;4.83;;;;;;;9.35;90.22;101341.03;5016072;28;20172;-69
2021/06/02 00:35:37;;;;;;;8.17;4.80;;;;;;;9.37;90.57;101336.50;5016684;28;20164;-68
2021/06/02 00:38:03;;;;;;;11.73;4.90;;;;;;;9.40;90.60;101344.38;5033832;28;20168;-69
2021/06/02 00:40:43;;;;;;;14.93;5.30;;;;;;;9.37;90.51;101341.84;5016371;28;20204;-69
2021/06/02 00:43:08;;;;;;;9.07;4.90;;;;;;;9.32;91.34;101346.47;5015970;28;20156;-69
2021/06/02 00:45:34;;;;;;;9.53;5.20;;;;;;;9.46;90.63;101352.09;5015623;28;20168;-69
2021/06/02 00:48:03;;;;;;;9.50;4.87;;;;;;;9.37;90.85;101355.16;5015752;28;20176;-69
2021/06/02 00:50:30;;;;;;;14.30;5.70;;;;;;;9.41;90.46;101348.78;5015742;28;20188;-69
2021/06/02 00:52:55;;;;;;;9.93;4.83;;;;;;;9.55;89.97;101351.72;5015441;28;20227;-68
2021/06/02 00:55:21;;;;;;;12.07;5.20;;;;;;;9.61;89.74;101351.47;5033762;28;20176;-69
2021/06/02 00:57:48;;;;;;;11.00;5.03;;;;;;;9.49;89.86;101351.97;5015338;28;20689;-69
2021/06/02 01:00:15;;;;;;;11.80;4.60;;;;;;;9.64;89.65;101354.00;5032344;28;20284;-69
2021/06/02 01:02:41;;;;;;;10.23;4.77;;;;;;;9.51;89.10;101355.47;5034142;28;20605;-69
2021/06/02 01:05:08;;;;;;;10.20;4.60;;;;;;;9.36;88.22;101358.75;5015527;28;20208;-69
2021/06/02 01:07:34;;;;;;;8.17;4.80;;;;;;;9.43;90.58;101368.22;5015712;28;20187;-69
2021/06/02 01:10:00;;;;;;;7.33;4.90;;;;;;;9.31;90.15;101368.72;5016018;28;20192;-69
2021/06/02 01:12:28;;;;;;;12.03;5.40;;;;;;;9.58;89.76;101367.59;5016587;28;20208;-69
2021/06/02 01:14:54;;;;;;;9.10;4.47;;;;;;;9.52;89.06;101361.66;5016618;28;20171;-69
2021/06/02 01:17:28;;;;;;;13.23;5.13;;;;;;;9.54;89.63;101359.78;5017239;28;20211;-69
2021/06/02 01:19:55;;;;;;;11.10;5.00;;;;;;;9.53;89.68;101363.38;5037343;28;20203;-69
2021/06/02 01:22:21;;;;;;;15.87;6.83;;;;;;;9.53;90.09;101350.94;5017786;28;20641;-69
2021/06/02 01:24:46;;;;;;;11.93;5.37;;;;;;;9.58;89.82;101354.28;5014500;28;20186;-69
2021/06/02 01:27:12;;;;;;;11.17;5.33;;;;;;;9.55;89.38;101361.53;5032249;28;20259;-69
2021/06/02 01:29:41;;;;;;;9.37;5.10;;;;;;;9.53;89.57;101358.94;5031870;28;20188;-68
2021/06/02 01:32:25;;;;;;;7.87;4.97;;;;;;;9.50;90.18;101356.38;5014856;28;20211;-69
2021/06/02 01:35:17;;;;;;;9.80;5.47;;;;;;;9.48;89.74;101355.59;5032610;28;20196;-68
2021/06/02 01:37:45;;;;;;;11.17;5.70;;;;;;;9.43;90.31;101359.38;5014716;28;20195;-69
2021/06/02 01:40:31;;;;;;;11.67;6.17;;;;;;;9.45;90.47;101361.03;5014701;22;986964;-66
2021/06/02 01:43:09;;;;;;;13.37;6.60;;;;;;;9.42;90.45;101360.28;5013476;28;20484;-66
2021/06/02 01:45:44;;;;;;;10.97;5.90;;;;;;;9.54;90.16;101357.13;4995361;28;20161;-66
2021/06/02 01:48:19;;;;;;;11.63;6.30;;;;;;;9.41;90.52;101356.75;4995518;28;20204;-66
2021/06/02 01:51:08;;;;;;;10.60;5.97;;;;;;;9.50;90.35;101361.72;4995252;28;20283;-66
2021/06/02 01:54:04;;;;;;;7.10;4.13;;;;;;;9.07;89.51;101366.06;4995558;28;20216;-66
2021/06/02 01:56:41;;;;;;;7.83;4.27;;;;;;;8.80;90.83;101364.44;4996063;28;20231;-66
2021/06/02 01:59:09;;;;;;;8.50;4.77;;;;;;;8.62;91.57;101365.13;4995289;28;20176;-66
2021/06/02 02:01:49;;;;;;;12.20;5.73;;;;;;;8.59;92.29;101362.56;4994924;28;20223;-66
2021/06/02 02:04:39;;;;;;;14.10;6.47;;;;;;;8.56;93.76;101365.34;4995803;28;20215;-66
2021/06/02 02:07:36;;;;;;;12.07;6.40;;;;;;;8.51;95.27;101370.81;5013130;28;20161;-66
2021/06/02 02:10:20;;;;;;;10.50;6.40;;;;;;;8.55;94.84;101356.50;5007893;28;20209;-66
2021/06/02 02:13:16;;;;;;;9.97;6.53;;;;;;;8.67;94.07;101360.50;5015885;28;20222;-66
2021/06/02 02:16:10;;;;;;;13.37;6.77;;;;;;;8.53;94.33;101362.75;5016763;28;20166;-66
2021/06/02 02:19:02;;;;;;;11.53;6.93;;;;;;;8.45;94.60;101371.03;5016401;28;20205;-66
2021/06/02 02:21:40;;;;;;;9.73;5.93;;;;;;;8.28;94.53;101366.28;5016239;28;20291;-66
2021/06/02 02:24:11;;;;;;;11.27;6.50;;;;;;;8.24;95.34;101367.31;4998673;28;20644;-66
2021/06/02 02:26:49;;;;;;;11.40;7.57;;;;;;;8.27;96.04;101369.88;4998493;28;20566;-66
2021/06/02 02:29:24;;;;;;;15.90;7.57;;;;;;;8.29;95.66;101364.50;4998520;28;20169;-66
2021/06/02 02:32:17;;;;;;;13.23;7.47;;;;;;;8.26;96.37;101365.47;4998490;28;20200;-66
2021/06/02 02:34:56;;;;;;;17.43;8.60;;;;;;;8.24;97.11;101362.00;4999206;28;20173;-66
2021/06/02 02:37:36;;;;;;;20.37;9.87;;;;;;;8.23;97.67;101365.56;5016601;28;20184;-66
2021/06/02 02:40:06;;;;;;;11.47;9.63;;;;;;;8.29;98.26;101368.03;4998589;28;20251;-66
2021/06/02 02:42:46;;;;;;;13.50;10.20;;;;;;;8.35;98.65;101370.50;4981903;28;20179;-66
2021/06/02 02:45:28;;;;;;;18.87;11.77;;;;;;;8.42;98.93;101366.69;4998386;28;20169;-66
2021/06/02 02:48:06;;;;;;;19.57;11.67;;;;;;;8.48;99.66;101364.72;4981968;28;20548;-66
2021/06/02 02:50:36;;;;;;;17.83;10.77;;;;;;;8.61;99.15;101372.22;4998669;28;20552;-66
2021/06/02 02:53:08;;;;;;;15.87;9.60;;;;;;;8.64;98.45;101372.13;4998206;28;20207;-66
2021/06/02 02:55:36;;;;;;;17.70;10.23;;;;;;;8.72;97.29;101362.06;4998054;28;20264;-67
2021/06/02 02:58:16;;;;;;;17.10;9.53;;;;;;;8.84;97.13;101365.19;4998350;28;20185;-66
2021/06/02 03:00:46;;;;;;;14.97;8.50;;;;;;;8.94;95.62;101364.81;5015468;28;20281;-66
2021/06/02 03:03:33;;;;;;;13.77;8.37;;;;;;;8.97;95.00;101363.81;4998064;28;20177;-66
2021/06/02 03:06:21;;;;;;;16.00;9.07;;;;;;;9.00;94.44;101361.91;4981560;28;20347;-66
2021/06/02 03:09:21;;;;;;;13.73;8.20;;;;;;;8.97;94.07;101367.34;5015494;28;20180;-66
2021/06/02 03:11:50;;;;;;;12.87;8.00;;;;;;;9.13;93.32;101366.75;4997528;28;20192;-67
2021/06/02 03:14:22;;;;;;;12.77;8.40;;;;;;;9.12;92.34;101379.19;4997448;28;20238;-67
2021/06/02 03:16:57;;;;;;;11.60;8.43;;;;;;;9.20;92.31;101386.88;5015436;28;20260;-67
2021/06/02 03:19:41;;;;;;;13.33;8.63;;;;;;;9.11;92.49;101393.44;4981261;28;20628;-67
2021/06/02 03:22:14;;;;;;;15.00;8.93;;;;;;;9.02;92.63;101392.00;4981341;28;20161;-66
2021/06/02 03:25:02;;;;;;;14.53;9.30;;;;;;;8.99;92.85;101393.91;5014191;28;20185;-66
2021/06/02 03:27:34;;;;;;;13.70;8.33;;;;;;;8.95;91.18;101408.25;5014936;28;20165;-66
2021/06/02 03:30:14;;;;;;;8.13;7.00;;;;;;;8.90;91.47;101405.75;4997400;28;20208;-66
2021/06/02 03:33:16;;;;;;;10.80;4.97;;;;;;;8.78;89.04;101407.06;4997553;28;20177;-66
2021/06/02 03:35:57;;;;;;;9.50;5.53;;;;;;;8.71;89.62;101407.34;5014873;28;20172;-66
2021/06/02 03:38:35;;;;;;;9.27;6.47;;;;;;;8.75;90.18;101411.63;5014594;28;20259;-66
2021/06/02 03:41:03;;;;;;;11.97;7.57;;;;;;;8.83;90.31;101409.56;4997029;28;20220;-66
2021/06/02 03:43:35;;;;;;;14.30;7.67;;;;;;;8.85;90.16;101413.03;4996932;28;20560;-66
2021/06/02 03:46:06;;;;;;;10.80;7.17;;;;;;;8.94;90.68;101402.06;4997423;28;20170;-66
2021/06/02 03:48:41;;;;;;;11.20;7.60;;;;;;;9.12;90.05;101396.97;5014705;28;20169;-66
2021/06/02 03:51:17;;;;;;;14.80;8.67;;;;;;;9.29;89.63;101397.19;4997289;28;20196;-66
2021/06/02 03:54:08;;;;;;;12.80;8.00;;;;;;;9.50;88.78;101396.34;4997397;28;20208;-66
2021/06/02 03:56:54;;;;;;;11.83;7.57;;;;;;;9.71;87.32;101402.63;5014551;28;20197;-66
2021/06/02 03:59:35;;;;;;;9.77;6.53;;;;;;;9.94;85.94;101401.69;4996651;28;20201;-67
2021/06/02 04:02:09;;;;;;;14.00;7.27;;;;;;;10.12;84.76;101400.94;5014651;28;20158;-66
2021/06/02 04:04:45;;;;;;;13.83;6.03;;;;;;;10.35;83.24;101407.97;4996715;28;20167;-66
2021/06/02 04:07:18;;;;;;;11.27;6.43;;;;;;;10.69;81.56;101409.19;4996714;28;20172;-66
2021/06/02 04:10:05;;;;;;;9.07;6.43;;;;;;;10.45;82.82;101411.16;4996550;28;20192;-66
2021/06/02 04:12:33;;;;;;;13.13;5.63;;;;;;;10.71;81.99;101409.97;4996781;28;20657;-66
2021/06/02 04:14:59;;;;;;;10.80;5.73;;;;;;;10.83;80.88;101405.00;4996426;28;20203;-65
2021/06/02 04:17:26;;;;;;;14.70;5.97;;;;;;;11.23;79.17;101408.50;4980236;28;20226;-66
2021/06/02 04:19:52;;;;;;;13.93;5.80;;;;;;;11.01;79.95;101413.09;5013746;28;20696;-66
2021/06/02 04:22:20;;;;;;;10.03;5.30;;;;;;;11.07;79.66;101418.16;5013906;28;20173;-66
2021/06/02 04:24:46;;;;;;;10.37;5.47;;;;;;;11.08;81.23;101419.88;4996855;28;20533;-66
2021/06/02 04:27:14;;;;;;;9.07;5.37;;;;;;;11.21;79.61;101415.72;5013820;28;20177;-66
2021/06/02 04:29:39;;;;;;;9.70;5.43;;;;;;;11.12;79.79;101417.00;4996115;28;20172;-66
2021/06/02 04:32:06;;;;;;;10.43;5.30;;;;;;;11.11;79.91;101417.06;5013682;28;20215;-66
2021/06/02 04:34:32;;;;;;;6.90;4.90;;;;;;;11.37;79.39;101422.09;4995902;28;20169;-65
2021/06/02 04:37:01;;;;;;;13.70;5.40;;;;;;;11.28;78.30;101428.72;4996106;28;20230;-65
2021/06/02 04:39:28;;;;;;;6.60;4.70;;;;;;;11.36;78.61;101416.81;5013762;28;20212;-65
2021/06/02 04:41:58;;;;;;;9.77;5.70;;;;;;;11.66;77.27;101419.84;5013182;28;20275;-66
2021/06/02 04:44:24;;;;;;;9.23;5.73;;;;;;;11.92;76.30;101421.28;4996168;28;20259;-65
2021/06/02 04:46:50;;;;;;;7.43;5.50;;;;;;;11.81;77.35;101419.97;5013386;28;20657;-65
2021/06/02 04:49:16;;;;;;;11.57;5.63;;;;;;;11.89;76.87;101422.28;5013614;28;20259;-65
2021/06/02 04:52:00;;;;;;;7.70;5.67;;;;;;;11.97;77.28;101422.78;5013263;28;20675;-66
2021/06/02 04:54:47;;;;;;;8.57;5.53;;;;;;;11.27;79.42;101416.31;5013577;28;20470;-64
2021/06/02 04:57:31;;;;;;;9.93;5.10;;;;;;;11.46;78.57;101428.78;4996118;28;20165;-65
2021/06/02 05:00:16;;;;;;;10.23;5.80;;;;;;;11.74;78.31;101420.34;4995619;28;20669;-65
2021/06/02 05:03:13;;;;;;;12.00;6.13;;;;;;;11.26;79.64;101422.59;5013432;28;20515;-68
2021/06/02 05:05:48;;;;;;;12.33;6.50;;;;;;;10.98;81.01;101424.78;5013689;28;20219;-68
2021/06/02 05:08:41;;;;;;;7.57;5.50;;;;;;;11.20;79.68;101422.88;5013276;28;20167;-68
2021/06/02 05:11:09;;;;;;;14.43;6.50;;;;;;;11.22;79.45;101425.47;5012972;28;20260;-68
2021/06/02 05:14:12;;;;;;;10.13;6.33;;;;;;;11.25;79.50;101434.22;5013123;28;20633;-68
2021/06/02 05:16:46;;;;;;;9.40;5.70;;;;;;;11.49;78.33;101434.00;5013052;28;20173;-68
2021/06/02 05:22:14;;;;;;;9.87;5.67;;;;;;;11.56;77.21;101441.69;5013067;28;20215;-68
2021/06/02 05:25:16;;;;;;;9.53;5.40;;;;;;;11.39;78.34;101459.44;5013332;28;20180;-67
2021/06/02 05:28:19;;;;;;;11.60;5.40;;;;;;;11.85;75.20;101455.47;5013010;28;20184;-68
2021/06/02 05:31:05;;;;;;;9.33;5.00;;;;;;;11.85;75.74;101459.00;5013079;28;20196;-70
2021/06/02 05:33:58;;;;;;;9.97;5.67;;;;;;;11.66;76.80;101462.63;5013436;28;20169;-70
2021/06/02 05:36:34;;;;;;;10.27;5.17;;;;;;;11.84;75.68;101459.09;5013211;28;20200;-70
2021/06/02 05:39:18;;;;;;;11.43;5.37;;;;;;;11.72;75.75;101457.84;4995702;28;20204;-69
2021/06/02 05:41:56;;;;;;;8.33;5.60;;;;;;;11.58;76.90;101458.50;5012791;28;20299;-69
2021/06/02 05:44:30;;;;;;;10.17;4.93;;;;;;;11.98;76.00;101461.97;4995398;28;20704;-69
2021/06/02 05:47:01;;;;;;;11.17;4.93;;;;;;;12.17;74.98;101456.56;5015226;28;20208;-69
2021/06/02 05:49:54;;;;;;;9.07;4.37;;;;;;;12.16;74.23;101468.22;5016809;28;20259;-69
2021/06/02 05:52:46;;;;;;;15.60;5.17;;;;;;;12.24;74.32;101473.19;5016840;28;20169;-70
2021/06/02 05:55:27;;;;;;;7.00;4.03;;;;;;;12.64;72.48;101469.41;5016880;28;20525;-70
2021/06/02 05:58:33;;;;;;;9.13;4.80;;;;;;;13.23;69.66;101465.41;5016435;28;20165;-70
2021/06/02 06:01:33;;;;;;;7.07;3.93;;;;;;;12.76;71.70;101469.63;5000217;28;20205;-70
2021/06/02 06:04:21;;;;;;;7.67;4.57;;;;;;;12.80;71.46;101473.00;4998875;28;20209;-69
2021/06/02 06:06:57;;;;;;;6.97;4.30;;;;;;;13.29;70.14;101465.94;4998816;28;20648;-70
2021/06/02 06:09:56;;;;;;;9.20;4.07;;;;;;;13.82;68.37;101454.06;4998903;28;20161;-70
2021/06/02 06:12:43;;;;;;;7.70;4.40;;;;;;;13.19;69.66;101458.47;4999368;28;20167;-70
2021/06/02 06:15:45;;;;;;;7.53;4.03;;;;;;;13.22;69.90;101461.84;5016175;28;20176;-70
2021/06/02 06:18:13;;;;;;;8.93;4.10;;;;;;;13.46;69.14;101451.63;5016507;28;20207;-70
2021/06/02 06:21:01;;;;;;;6.07;3.87;;;;;;;13.79;67.40;101464.09;5016284;28;20244;-70
2021/06/02 06:24:04;;;;;;;10.00;4.00;;;;;;;14.02;66.71;101463.66;4986684;28;20320;-70
2021/06/02 06:26:36;;;;;;;6.27;3.53;;;;;;;13.99;67.14;101447.72;5016903;28;20541;-70
2021/06/02 06:29:17;;;;;;;5.93;3.80;;;;;;;14.19;65.73;101457.31;4998555;28;20181;-70
2021/06/02 06:31:45;;;;;;;7.40;3.77;;;;;;;13.54;69.52;101454.75;5015724;28;20193;-70
2021/06/02 06:34:14;;;;;;;6.33;3.70;;;;;;;13.38;69.88;101451.16;4998316;28;20177;-70
2021/06/02 06:36:39;;;;;;;5.93;3.83;;;;;;;13.51;69.34;101451.38;4998385;28;20665;-69
2021/06/02 06:39:15;;;;;;;6.87;3.60;;;;;;;13.66;69.23;101450.50;4998537;28;20215;-70
2021/06/02 06:41:40;;;;;;;5.70;3.33;;;;;;;14.14;67.83;101448.69;5015675;28;20216;-70
2021/06/02 06:44:07;;;;;;;6.97;4.10;;;;;;;14.22;66.96;101449.97;5015951;28;20180;-69
2021/06/02 06:46:32;;;;;;;4.67;3.23;;;;;;;14.48;66.50;101443.06;4998749;28;20235;-70
2021/06/02 06:48:59;;;;;;;7.73;4.17;;;;;;;14.02;68.70;101444.88;4998050;28;20177;-70
2021/06/02 06:51:27;;;;;;;6.77;3.27;;;;;;;14.42;66.31;101434.47;4997729;28;20189;-70
2021/06/02 06:53:52;;;;;;;6.63;3.50;;;;;;;14.31;67.20;101448.53;4998008;28;20268;-70
2021/06/02 06:56:18;;;;;;;5.33;4.20;;;;;;;14.47;66.68;101443.16;4998683;28;20177;-70
2021/06/02 06:58:44;;;;;;;6.57;3.43;;;;;;;14.49;65.96;101439.41;4980600;28;20185;-70
2021/06/02 07:01:12;;;;;;;6.43;3.20;;;;;;;14.90;65.29;101444.16;5015097;28;20209;-70
2021/06/02 07:03:39;;;;;;;8.30;3.40;;;;;;;15.00;64.59;101440.78;4997990;28;20199;-70
2021/06/02 07:06:04;;;;;;;5.73;2.80;;;;;;;14.72;63.76;101431.81;4997856;28;20178;-70
2021/06/02 07:08:30;;;;;;;7.27;3.10;;;;;;;14.35;65.79;101432.16;4998154;28;20196;-70
2021/06/02 07:10:59;;;;;;;5.97;3.00;;;;;;;14.66;64.61;101430.38;4997834;28;20192;-70
2021/06/02 07:13:24;;;;;;;4.10;2.90;;;;;;;14.61;64.98;101430.66;5015552;28;20581;-70
2021/06/02 07:15:50;;;;;;;8.40;3.10;;;;;;;14.78;64.94;101445.72;4998185;28;20271;-71
2021/06/02 07:18:18;;;;;;;6.27;2.80;;;;;;;14.62;64.91;101437.75;4999769;28;20259;-69
2021/06/02 07:20:44;;;;;;;7.03;3.03;;;;;;;14.96;64.02;101439.25;4997858;28;20280;-70
2021/06/02 07:23:09;;;;;;;5.30;2.73;;;;;;;15.23;63.64;101447.41;4997600;28;20204;-70
2021/06/02 07:25:34;;;;;;;3.80;2.73;;;;;;;14.78;64.66;101456.50;4999101;28;20545;-70
2021/06/02 07:28:02;;;;;;;6.03;3.07;;;;;;;15.15;63.23;101455.09;5016203;28;20181;-70
2021/06/02 07:30:28;;;;;;;7.73;3.37;;;;;;;15.08;63.33;101453.75;4998537;28;20666;-70
2021/06/02 07:32:54;;;;;;;5.60;3.33;;;;;;;15.02;62.40;101460.38;4998083;28;20196;-70
2021/06/02 07:35:20;;;;;;;4.47;2.60;;;;;;;15.16;62.60;101456.81;4997183;28;20221;-70
2021/06/02 07:37:45;;;;;;;8.10;2.53;;;;;;;15.37;62.04;101457.31;4997260;28;20249;-70
2021/06/02 07:40:11;;;;;;;4.13;2.80;;;;;;;15.37;61.46;101468.06;5016917;28;20217;-72
2021/06/02 07:42:37;;;;;;;4.77;2.87;;;;;;;15.56;61.66;101465.06;5015602;28;20247;-69
2021/06/02 07:45:06;;;;;;;4.77;3.27;;;;;;;15.40;62.17;101464.31;5014864;28;20203;-70
2021/06/02 07:47:32;;;;;;;9.67;3.40;;;;;;;15.27;62.58;101465.09;5014873;28;20204;-70
2021/06/02 07:49:57;;;;;;;5.50;3.03;;;;;;;15.46;62.34;101458.56;5014583;28;20195;-70
2021/06/02 07:52:26;;;;;;;6.67;3.30;;;;;;;15.80;61.13;101468.91;5014871;28;20173;-70
2021/06/02 07:54:51;;;;;;;4.10;3.00;;;;;;;15.66;63.59;101463.56;5015017;28;20177;-70
2021/06/02 07:57:16;;;;;;;6.37;2.60;;;;;;;15.55;61.33;101461.53;5016787;28;20188;-71
2021/06/02 07:59:42;;;;;;;5.13;2.50;;;;;;;15.68;61.81;101464.34;5014973;28;20192;-69
2021/06/02 08:02:07;;;;;;;4.67;2.97;;;;;;;15.46;61.90;101462.09;4997428;28;20177;-70
2021/06/02 08:04:32;;;;;;;4.00;3.07;;;;;;;15.61;61.59;101468.41;5014393;28;20224;-70
2021/06/02 08:07:00;;;;;;;5.80;3.00;;;;;;;15.42;62.99;101468.66;5014684;28;20169;-70
2021/06/02 08:09:25;;;;;;;3.17;2.80;;;;;;;15.42;61.78;101465.97;5014308;28;20582;-70
2021/06/02 08:11:51;;;;;;;6.40;3.40;;;;;;;15.30;63.20;101464.91;5014289;28;20192;-70
2021/06/02 08:14:16;;;;;;;5.93;3.10;;;;;;;15.71;61.31;101471.34;4996959;28;20169;-70
2021/06/02 08:16:42;;;;;;;5.67;3.00;;;;;;;15.87;59.28;101462.16;4997828;28;20173;-69
2021/06/02 08:19:07;;;;;;;7.53;2.73;;;;;;;15.73;60.89;101464.91;5014258;28;20537;-70
2021/06/02 08:21:34;;;;;;;4.00;2.43;;;;;;;16.06;57.82;101469.94;4996664;28;20688;-71
2021/06/02 08:24:00;;;;;;;5.90;2.63;;;;;;;16.30;57.25;101471.94;5014558;28;20177;-70
2021/06/02 08:26:25;;;;;;;7.67;3.03;;;;;;;15.98;58.31;101483.00;5014126;28;20176;-70
2021/06/02 08:28:51;;;;;;;7.77;2.80;;;;;;;15.79;59.79;101477.09;5013908;28;20165;-70
2021/06/02 08:31:16;;;;;;;7.10;3.03;;;;;;;16.03;60.28;101471.97;5013816;28;20217;-70
2021/06/02 08:33:43;;;;;;;9.40;3.27;;;;;;;15.77;59.68;101481.72;5013919;28;20251;-70
2021/06/02 08:36:08;;;;;;;6.70;2.80;;;;;;;16.07;58.16;101460.88;4996573;28;20177;-70
2021/06/02 08:38:34;;;;;;;5.30;2.83;;;;;;;15.80;59.59;101474.31;5014002;28;20255;-70
2021/06/02 08:40:59;;;;;;;6.20;3.13;;;;;;;16.24;59.78;101459.75;4996104;28;20704;-69
2021/06/02 08:43:24;;;;;;;6.13;3.23;;;;;;;16.27;58.92;101463.09;4996335;28;20633;-69
2021/06/02 08:45:50;;;;;;;6.57;3.10;;;;;;;16.22;60.71;101464.38;5014097;28;20207;-69
2021/06/02 08:48:15;;;;;;;6.30;3.20;;;;;;;16.27;59.91;101467.63;5014109;28;20745;-68
2021/06/02 08:50:40;;;;;;;7.63;3.13;;;;;;;16.33;57.65;101466.34;5013632;28;20280;-69
2021/06/02 08:53:06;;;;;;;5.87;2.70;;;;;;;16.41;57.86;101461.34;5013516;28;20168;-69
2021/06/02 08:55:31;;;;;;;6.23;2.73;;;;;;;16.64;57.75;101467.84;5013707;28;20228;-69
2021/06/02 08:57:57;;;;;;;4.37;2.40;;;;;;;16.75;56.47;101462.63;4996872;28;20176;-69
2021/06/02 09:00:24;;;;;;;5.90;2.50;;;;;;;17.08;56.12;101465.66;4997272;28;20295;-69
2021/06/02 09:02:57;;;;;;;5.93;2.97;;;;;;;16.75;57.84;101470.72;4997029;28;20196;-70
2021/06/02 09:05:24;;;;;;;5.23;2.83;;;;;;;16.83;58.15;101465.66;5013416;28;20232;-69
2021/06/02 09:07:52;;;;;;;6.97;2.90;;;;;;;16.56;58.39;101463.84;4996082;28;20205;-70
2021/06/02 09:10:18;;;;;;;5.27;2.70;;;;;;;16.86;58.14;101466.31;5013605;28;20228;-69
2021/06/02 09:12:44;;;;;;;5.87;2.63;;;;;;;16.97;57.17;101467.38;5013538;28;20173;-70
2021/06/02 09:15:12;;;;;;;5.43;2.77;;;;;;;17.23;56.76;101466.44;4995793;28;20177;-70
2021/06/02 09:17:57;;;;;;;5.13;2.83;;;;;;;17.48;57.00;101466.41;5013575;28;20722;-70
2021/06/02 09:20:35;;;;;;;4.07;2.60;;;;;;;17.59;55.74;101454.84;5013179;28;20330;-70
2021/06/02 09:23:01;;;;;;;3.33;2.40;;;;;;;17.56;55.89;101465.84;5017100;28;20176;-70
2021/06/02 09:25:27;;;;;;;6.27;2.80;;;;;;;17.73;53.90;101461.97;5017269;28;20238;-70
2021/06/02 09:28:02;;;;;;;15.63;2.87;;;;;;;17.70;53.99;101459.47;4999710;28;20183;-70
2021/06/02 09:30:37;;;;;;;5.13;1.80;;;;;;;17.97;51.10;101462.00;5017183;28;20192;-69
2021/06/02 09:33:02;;;;;;;5.27;2.00;;;;;;;18.12;49.96;101467.13;5000946;28;20156;-70
2021/06/02 09:35:38;;;;;;;5.87;2.10;;;;;;;18.21;49.78;101468.28;5017160;28;20708;-70
2021/06/02 09:38:05;;;;;;;3.17;1.93;;;;;;;18.25;49.98;101472.50;5016838;28;20218;-70
2021/06/02 09:40:38;;;;;;;6.87;1.93;;;;;;;18.30;49.29;101464.03;5016628;28;20208;-70
2021/06/02 09:43:05;;;;;;;3.13;2.03;;;;;;;18.51;48.44;101465.09;5016912;28;20185;-70
2021/06/02 09:45:30;;;;;;;5.53;2.00;;;;;;;18.57;50.66;101464.63;5017043;28;20181;-70
2021/06/02 09:48:00;;;;;;;5.87;2.30;;;;;;;18.40;50.74;101474.03;5017123;28;20525;-70
2021/06/02 09:50:32;;;;;;;3.13;2.07;;;;;;;18.45;51.04;101473.66;4999446;28;20189;-70
2021/06/02 09:53:01;;;;;;;2.43;2.07;;;;;;;18.27;52.10;101467.84;5016966;28;20526;-70
2021/06/02 09:55:40;;;;;;;4.13;2.13;;;;;;;18.47;51.27;101468.16;5016986;28;20169;-70
2021/06/02 09:58:05;;;;;;;4.17;1.97;;;;;;;18.87;49.22;101476.78;5016872;28;20176;-70
2021/06/02 10:00:31;;;;;;;6.13;2.43;;;;;;;18.61;51.06;101468.84;5016547;28;20209;-70
2021/06/02 10:03:01;;;;;;;5.03;2.17;;;;;;;18.80;50.68;101459.31;5016632;28;20195;-70
2021/06/02 10:05:41;;;;;;;3.93;2.17;;;;;;;19.14;49.58;101468.38;5016498;28;20204;-70
2021/06/02 10:08:08;;;;;;;3.30;2.03;;;;;;;18.88;48.38;101475.81;5017013;28;20153;-70
2021/06/02 10:10:34;;;;;;;4.27;2.40;;;;;;;19.38;47.40;101471.00;4999147;28;20195;-70
2021/06/02 10:13:04;;;;;;;4.93;2.10;;;;;;;19.59;47.23;101472.00;4999475;28;20181;-70
2021/06/02 10:15:40;;;;;;;2.17;1.60;;;;;;;19.67;46.10;101478.50;4983774;28;20177;-70
2021/06/02 10:18:32;;;;;;;2.90;2.00;;;;;;;19.87;46.86;101482.31;4999829;28;20168;-70
2021/06/02 10:21:03;;;;;;;4.53;1.80;;;;;;;19.59;48.27;101475.56;5017463;28;20255;-69
2021/06/02 10:23:35;;;;;;;7.77;2.40;;;;;;;19.78;49.04;101474.09;5016978;28;20161;-69
2021/06/02 10:26:02;;;;;;;3.27;2.10;;;;;;;19.93;47.06;101478.25;5016111;28;20161;-70
2021/06/02 10:28:28;;;;;;;3.50;1.80;;;;;;;20.49;48.02;101476.28;4998875;28;20181;-70
2021/06/02 10:30:53;;;;;;;5.20;2.37;;;;;;;20.76;46.77;101470.34;4998752;28;20189;-70
2021/06/02 10:33:19;;;;;;;3.13;1.80;;;;;;;20.95;46.29;101468.75;4998541;28;20176;-70
2021/06/02 10:35:44;;;;;;;6.80;2.17;;;;;;;20.58;47.59;101464.66;5015991;28;20222;-69
2021/06/02 10:38:11;;;;;;;5.03;2.20;;;;;;;20.72;46.74;101466.16;5016369;28;20181;-69
2021/06/02 10:40:38;;;;;;;5.73;2.17;;;;;;;20.75;46.10;101465.91;5016240;28;20204;-70
2021/06/02 10:43:08;;;;;;;5.20;2.30;;;;;;;21.27;45.46;101464.13;4999742;28;20240;-70
2021/06/02 10:45:38;;;;;;;2.53;1.83;;;;;;;21.64;44.69;101464.44;5016351;28;20517;-70
2021/06/02 10:48:04;;;;;;;4.97;2.20;;;;;;;21.73;45.33;101466.34;4998727;28;20212;-70
2021/06/02 10:50:33;;;;;;;6.67;2.00;;;;;;;21.83;45.63;101466.34;4998424;28;20203;-69
2021/06/02 10:52:59;;;;;;;3.20;2.50;;;;;;;21.71;45.22;101462.91;5015973;28;20176;-70
2021/06/02 10:55:36;;;;;;;7.10;2.10;;;;;;;21.89;44.98;101463.06;4998314;28;20169;-71
2021/06/02 10:58:20;;;;;;;4.33;2.60;;;;;;;22.72;43.05;101461.78;5015914;28;20636;-70
2021/06/02 11:00:48;;;;;;;4.23;2.87;;;;;;;23.29;42.25;101460.81;4998987;28;20201;-70
2021/06/02 11:03:22;;;;;;;4.13;3.00;;;;;;;23.91;40.32;101467.47;4997881;28;20176;-71
2021/06/02 11:06:13;;;;;;;3.83;2.53;;;;;;;25.69;37.83;101463.72;4997958;28;20657;-71
2021/06/02 11:08:47;;;;;;;2.60;2.30;;;;;;;24.10;40.20;101457.44;4989182;28;20181;-70
2021/06/02 11:11:30;;;;;;;5.27;2.77;;;;;;;26.52;35.58;101458.31;5015351;28;20189;-71
2021/06/02 11:14:16;;;;;;;4.20;2.43;;;;;;;25.56;37.26;101458.66;5015883;28;20172;-71
2021/06/02 11:17:08;;;;;;;7.10;2.47;;;;;;;28.22;33.83;101459.78;5016761;28;20243;-70
2021/06/02 11:19:42;;;;;;;3.72;2.33;;;;;;;27.97;32.92;101456.34;5012411;28;20189;-69
2021/06/02 11:22:09;;;;;;;4.50;2.40;;;;;;;26.93;34.86;101462.75;4997613;28;20169;-70
2021/06/02 11:24:37;;;;;;;4.45;2.42;;;;;;;30.56;29.24;101460.22;4997712;28;20242;-71
2021/06/02 11:27:11;;;;;;;12.70;2.70;;;;;;;30.53;28.88;101459.75;4998076;28;20196;-71
2021/06/02 11:29:46;;;;;;;5.10;2.83;;;;;;;31.22;28.78;101458.09;5015476;28;20168;-70
2021/06/02 11:32:18;;;;;;;9.00;2.92;;;;;;;31.42;27.83;101458.19;5016115;28;20169;-70
2021/06/02 11:34:45;;;;;;;6.45;3.35;;;;;;;31.91;27.41;101463.56;5015912;28;20223;-71
2021/06/02 11:37:13;;;;;;;4.05;2.70;;;;;;;30.45;29.04;101455.19;5016150;28;20181;-70
2021/06/02 11:39:40;;;;;;;5.82;3.60;;;;;;;28.52;32.51;101456.19;5014690;28;20176;-70
2021/06/02 11:42:06;;;;;;;6.50;3.55;;;;;;;27.82;33.35;101458.13;4997912;28;20153;-71
2021/06/02 11:44:33;;;;;;;6.05;2.85;;;;;;;29.84;30.21;101452.81;4996840;28;20533;-70
2021/06/02 11:46:59;;;;;;;7.28;4.55;;;;;;;27.88;32.73;101461.03;5014491;28;20192;-70
2021/06/02 11:49:35;;;;;;;6.60;3.97;;;;;;;28.78;32.19;101453.06;5014584;28;20183;-71
2021/06/02 11:52:13;;;;;;;5.88;3.83;;;;;;;26.75;36.09;101453.88;5014396;28;20157;-70
2021/06/02 11:54:59;;;;;;;9.50;3.90;;;;;;;28.95;31.61;101460.13;4997305;28;20192;-71